This is the latest recevied weather packets stored in our database for station/object W1SCW. If no packets are shown the sender has not sent any weather packets the latest 10 day(s).
| Time | Temp. | Humidity | Pressure | Rain* | Wind** | Luminosity | Snow |
|---|---|---|---|---|---|---|---|
| 1777847841 | 27.22° C | 35% | 1016.6 hPa | 0 mm | - | 330 W/m² | - |
| 1777847539 | 27.22° C | 35% | 1016.6 hPa | 0 mm | - | 368 W/m² | - |
| 1777847235 | 26.67° C | 37% | 1016.7 hPa | 0 mm | - | 383 W/m² | - |
| 1777846934 | 26.67° C | 36% | 1016.6 hPa | 0 mm | - | 209 W/m² | - |
| 1777846631 | 26.67° C | 37% | 1016.8 hPa | 0 mm | - | 187 W/m² | - |
| 1777846329 | 26.67° C | 35% | 1016.9 hPa | 0 mm | - | 306 W/m² | - |
| 1777846025 | 27.78° C | 34% | 1016.9 hPa | 0 mm | - | 307 W/m² | - |
| 1777845722 | 28.33° C | 35% | 1016.9 hPa | 0 mm | - | 449 W/m² | - |
| 1777845418 | 27.78° C | 35% | 1016.7 hPa | 0 mm | - | 476 W/m² | - |
| 1777845115 | 27.22° C | 37% | 1016.8 hPa | 0 mm | - | 505 W/m² | - |
| 1777844809 | 27.78° C | 35% | 1016.7 hPa | 0 mm | - | 291 W/m² | - |
| 1777844504 | 28.33° C | 33% | 1016.8 hPa | 0 mm | - | 538 W/m² | - |
| 1777844204 | 27.78° C | 35% | 1017 hPa | 0 mm | - | 563 W/m² | - |
| 1777843900 | 27.78° C | 36% | 1017.4 hPa | 0 mm | - | 596 W/m² | - |
| 1777843598 | 27.22° C | 36% | 1017.3 hPa | 0 mm | - | 605 W/m² | - |
| 1777843295 | 26.67° C | 36% | 1017.5 hPa | 0 mm | - | 443 W/m² | - |
| 1777842992 | 27.78° C | 36% | 1017.6 hPa | 0 mm | - | 625 W/m² | - |
| 1777842687 | 27.78° C | 35% | 1017.6 hPa | 0 mm | - | 625 W/m² | - |
| 1777842384 | 28.33° C | 33% | 1017.6 hPa | 0 mm | - | 654 W/m² | - |
| 1777842080 | 27.78° C | 35% | 1017.6 hPa | 0 mm | - | 654 W/m² | - |
| 1777841776 | 28.33° C | 34% | 1017.7 hPa | 0 mm | - | 650 W/m² | - |
| 1777841473 | 27.78° C | 34% | 1017.7 hPa | 0 mm | - | 670 W/m² | - |
| 1777841169 | 27.22° C | 35% | 1017.8 hPa | 0 mm | - | 693 W/m² | - |
| 1777840867 | 27.22° C | 38% | 1018.1 hPa | 0 mm | - | 730 W/m² | - |
| 1777840564 | 26.67° C | 38% | 1018 hPa | 0 mm | - | 183 W/m² | - |
* Rain latest hour (hover to see other rain measurements)
** Current wind speed in m/s (hover to see current wind gust speed)